Time;durP1;ratioP1;P1;durP2;ratioP2;P2;SDS_P1;SDS_P2;PMS_P1;PMS_P2;Temp;Humidity;BMP_temperature;BMP_pressure;BME280_temperature;BME280_humidity;BME280_pressure;Samples;Min_cycle;Max_cycle;Signal;HPM_P1;HPM_P2
2022/12/10 00:01:34;;;;;;;25.40;12.53;;;-1.10;99.90;;;;;;5036015;28;20275;-92
2022/12/10 00:04:01;;;;;;;23.00;11.10;;;-1.10;99.90;;;;;;5028582;28;20244;-90
2022/12/10 00:06:31;;;;;;;19.30;10.47;;;-1.10;99.90;;;;;;5015816;28;20263;-89
2022/12/10 00:08:58;;;;;;;25.03;12.37;;;-1.10;99.90;;;;;;5017395;28;20212;-90
2022/12/10 00:11:24;;;;;;;34.87;14.37;;;-1.10;99.90;;;;;;5016720;28;20197;-89
2022/12/10 00:13:51;;;;;;;28.13;12.90;;;-1.10;99.90;;;;;;5029940;28;20260;-90
2022/12/10 00:16:19;;;;;;;25.03;11.13;;;-1.10;99.90;;;;;;5050985;28;20272;-89
2022/12/10 00:18:49;;;;;;;23.23;10.90;;;-1.10;99.90;;;;;;5040033;28;20209;-91
2022/12/10 00:21:37;;;;;;;20.93;10.90;;;-1.10;99.90;;;;;;5035906;28;20194;-92
2022/12/10 00:24:05;;;;;;;26.93;12.33;;;-1.00;99.90;;;;;;5035832;28;20244;-91
2022/12/10 00:26:35;;;;;;;24.87;11.40;;;-1.10;99.90;;;;;;5036020;28;20201;-93
2022/12/10 00:29:02;;;;;;;24.30;11.40;;;-1.10;99.90;;;;;;5045695;28;20618;-90
2022/12/10 00:31:32;;;;;;;22.10;10.63;;;-1.10;99.90;;;;;;5038984;28;20252;-92
2022/12/10 00:34:00;;;;;;;25.23;11.27;;;-1.10;99.90;;;;;;5050099;28;20649;-89
2022/12/10 00:36:33;;;;;;;22.80;10.93;;;-1.10;99.90;;;;;;5043571;28;20186;-90
2022/12/10 00:38:59;;;;;;;21.27;11.30;;;-1.00;99.90;;;;;;5044760;28;20212;-91
2022/12/10 00:41:25;;;;;;;23.23;11.47;;;-1.00;99.90;;;;;;5040399;28;20194;-91
2022/12/10 00:43:51;;;;;;;29.17;12.87;;;-1.10;99.90;;;;;;5043963;28;20204;-92
2022/12/10 00:46:18;;;;;;;22.70;10.37;;;-1.00;99.90;;;;;;5047470;28;20182;-92
2022/12/10 00:48:44;;;;;;;24.60;11.60;;;-1.00;99.90;;;;;;5043030;28;20240;-91
2022/12/10 00:51:19;;;;;;;22.47;10.97;;;-1.10;99.90;;;;;;5048573;28;20194;-91
2022/12/10 00:53:47;;;;;;;29.67;12.00;;;-1.10;99.90;;;;;;5047910;28;20188;-90
2022/12/10 00:56:15;;;;;;;25.37;11.37;;;-1.20;99.90;;;;;;5046599;28;20276;-91
2022/12/10 00:58:41;;;;;;;24.57;10.57;;;-1.10;99.90;;;;;;5040847;28;20863;-90
2022/12/10 01:01:23;;;;;;;25.63;11.93;;;-1.20;99.90;;;;;;5041726;28;20190;-94
2022/12/10 01:03:51;;;;;;;22.57;11.00;;;-1.20;99.90;;;;;;5035416;28;20197;-89
2022/12/10 01:06:24;;;;;;;27.23;11.43;;;-1.10;99.90;;;;;;5051856;28;20217;-91
2022/12/10 01:08:53;;;;;;;25.73;11.87;;;-1.10;99.90;;;;;;5043752;28;20218;-90
2022/12/10 01:11:21;;;;;;;23.73;10.90;;;-1.10;99.90;;;;;;5043411;28;20190;-90
2022/12/10 01:13:48;;;;;;;22.30;10.57;;;-1.10;99.90;;;;;;5041971;28;20236;-89
2022/12/10 01:16:17;;;;;;;30.10;11.50;;;-1.10;99.90;;;;;;5044300;28;20236;-91
2022/12/10 01:18:42;;;;;;;23.23;11.67;;;-1.10;99.90;;;;;;5037363;28;20238;-89
2022/12/10 01:21:12;;;;;;;27.20;11.80;;;-1.10;99.90;;;;;;5042563;28;20645;-91
2022/12/10 01:23:40;;;;;;;20.77;10.03;;;-1.10;99.90;;;;;;5055206;28;20197;-90
2022/12/10 01:26:09;;;;;;;27.93;12.30;;;-1.10;99.90;;;;;;5045702;28;20186;-92
2022/12/10 01:28:36;;;;;;;29.13;12.80;;;-1.00;99.90;;;;;;5042017;28;20206;-89
2022/12/10 01:31:08;;;;;;;32.63;12.30;;;-1.00;99.90;;;;;;5041608;28;20190;-90
2022/12/10 01:33:35;;;;;;;25.77;11.60;;;-1.00;99.90;;;;;;5038868;28;20285;-91
2022/12/10 01:36:10;;;;;;;30.27;12.30;;;-1.00;99.90;;;;;;5422990;22;20265;-91
2022/12/10 01:38:37;;;;;;;28.60;11.80;;;-1.10;99.90;;;;;;5019271;28;20194;-89
2022/12/10 01:41:04;;;;;;;30.00;12.20;;;-1.00;99.90;;;;;;5037188;28;20212;-92
2022/12/10 01:43:50;;;;;;;24.17;11.40;;;-1.00;99.90;;;;;;5019780;28;20237;-92
2022/12/10 01:46:16;;;;;;;26.67;11.87;;;-1.10;99.90;;;;;;5019601;28;20185;-92
2022/12/10 01:48:42;;;;;;;28.60;12.97;;;-1.10;99.90;;;;;;5019586;28;20559;-92
2022/12/10 01:51:09;;;;;;;26.20;11.33;;;-1.10;99.90;;;;;;5019344;28;20262;-92
2022/12/10 01:53:34;;;;;;;25.17;12.20;;;-1.10;99.90;;;;;;5019549;28;20186;-90
2022/12/10 01:56:00;;;;;;;36.87;13.17;;;-1.10;99.90;;;;;;5019462;28;20525;-92
2022/12/10 01:58:26;;;;;;;29.63;13.37;;;-1.00;99.90;;;;;;5035900;28;20269;-92
2022/12/10 02:01:01;;;;;;;25.73;11.60;;;-1.00;99.90;;;;;;5019282;28;20532;-92
2022/12/10 02:03:44;;;;;;;26.97;11.77;;;-1.10;99.90;;;;;;5019267;28;20166;-93
2022/12/10 02:06:26;;;;;;;30.10;12.97;;;-1.10;99.90;;;;;;5019192;28;20578;-92
2022/12/10 02:09:33;;;;;;;30.23;12.63;;;-1.00;99.90;;;;;;5036716;28;20190;-92
2022/12/10 02:12:21;;;;;;;27.67;11.83;;;-0.90;99.90;;;;;;5003454;28;20571;-93
2022/12/10 02:15:00;;;;;;;30.73;12.93;;;-0.90;99.90;;;;;;5036569;28;20250;-92
2022/12/10 02:17:38;;;;;;;28.63;12.40;;;-0.90;99.90;;;;;;5019158;28;20571;-93
2022/12/10 02:20:04;;;;;;;28.77;11.77;;;-0.90;99.90;;;;;;5019030;28;20570;-92
2022/12/10 02:22:37;;;;;;;31.00;12.23;;;-0.90;99.90;;;;;;5018892;28;20186;-93
2022/12/10 02:25:06;;;;;;;37.67;13.47;;;-0.90;99.90;;;;;;5036722;28;20550;-93
2022/12/10 02:27:55;;;;;;;28.60;12.07;;;-0.90;99.90;;;;;;5018869;28;20178;-94
2022/12/10 02:30:21;;;;;;;30.87;13.10;;;-0.90;99.90;;;;;;5011245;28;20537;-94
2022/12/10 02:32:48;;;;;;;27.73;12.23;;;-0.90;99.90;;;;;;5018670;28;20182;-93
2022/12/10 02:35:24;;;;;;;29.73;12.23;;;-0.90;99.90;;;;;;5018640;28;20179;-93
2022/12/10 02:38:00;;;;;;;28.57;13.47;;;-0.90;99.90;;;;;;5018701;28;20284;-94
2022/12/10 02:40:32;;;;;;;30.97;13.73;;;-0.90;99.90;;;;;;5018686;28;20508;-93
2022/12/10 02:42:58;;;;;;;27.00;12.33;;;-0.90;99.90;;;;;;5036166;28;20202;-93
2022/12/10 02:45:27;;;;;;;29.47;13.47;;;-0.90;99.90;;;;;;5036051;28;20185;-92
2022/12/10 02:47:57;;;;;;;28.33;13.70;;;-0.90;99.90;;;;;;5018240;28;20206;-92
2022/12/10 02:50:23;;;;;;;27.13;13.17;;;-0.90;99.90;;;;;;5018619;28;20175;-94
2022/12/10 02:52:49;;;;;;;29.03;12.53;;;-1.00;99.90;;;;;;5035994;28;20175;-94
2022/12/10 02:55:15;;;;;;;29.47;13.80;;;-0.90;99.90;;;;;;5018168;28;20186;-93
2022/12/10 02:57:50;;;;;;;32.73;14.17;;;-0.90;99.90;;;;;;5018206;28;20179;-94
2022/12/10 03:00:22;;;;;;;29.57;12.90;;;-0.90;99.90;;;;;;5018215;28;20261;-94
2022/12/10 03:03:00;;;;;;;31.27;14.00;;;-0.90;99.90;;;;;;5017794;28;20511;-93
2022/12/10 03:06:07;;;;;;;28.63;13.80;;;-0.90;99.90;;;;;;5018543;28;20593;-94
2022/12/10 03:08:52;;;;;;;35.37;13.97;;;-0.90;99.90;;;;;;5018142;28;20213;-93
2022/12/10 03:11:22;;;;;;;28.97;12.57;;;-0.90;99.90;;;;;;5018209;28;20544;-94
2022/12/10 03:13:53;;;;;;;27.47;13.00;;;-0.90;99.90;;;;;;5035597;28;20233;-94
2022/12/10 03:16:21;;;;;;;31.93;13.27;;;-0.90;99.90;;;;;;5017757;28;20178;-93
2022/12/10 03:18:52;;;;;;;26.27;12.97;;;-0.90;99.90;;;;;;5017984;28;20236;-93
2022/12/10 03:21:18;;;;;;;26.03;12.83;;;-0.90;99.90;;;;;;5017924;28;20210;-92
2022/12/10 03:23:46;;;;;;;32.47;12.87;;;-0.90;99.90;;;;;;5035378;28;20258;-93
2022/12/10 03:26:13;;;;;;;32.13;14.30;;;-0.90;99.90;;;;;;5017967;28;20241;-93
2022/12/10 03:28:52;;;;;;;29.20;13.83;;;-0.90;99.90;;;;;;5017592;28;20210;-94
2022/12/10 03:31:19;;;;;;;28.10;13.77;;;-0.90;99.90;;;;;;5017620;28;20171;-93
2022/12/10 03:33:47;;;;;;;31.17;13.90;;;-0.90;99.90;;;;;;5017792;28;20187;-95
2022/12/10 03:36:14;;;;;;;26.90;13.40;;;-0.90;99.90;;;;;;5017582;28;20364;-93
2022/12/10 03:38:41;;;;;;;33.70;14.57;;;-0.90;99.90;;;;;;5017628;28;20190;-94
2022/12/10 03:41:07;;;;;;;30.83;14.20;;;-0.90;99.90;;;;;;5017909;28;20170;-95
2022/12/10 03:43:33;;;;;;;28.53;13.77;;;-0.80;99.90;;;;;;5017510;28;20179;-94
2022/12/10 03:45:59;;;;;;;29.67;13.83;;;-0.90;99.90;;;;;;5017379;28;20571;-93
2022/12/10 03:48:24;;;;;;;28.57;13.63;;;-0.90;99.90;;;;;;5017419;28;20273;-93
2022/12/10 03:50:50;;;;;;;28.33;14.57;;;-0.90;99.90;;;;;;5017701;28;20205;-94
2022/12/10 03:53:16;;;;;;;30.90;13.37;;;-0.80;99.90;;;;;;5034967;28;20175;-93
2022/12/10 03:55:41;;;;;;;30.07;13.70;;;-0.90;99.90;;;;;;5017211;28;20220;-94
2022/12/10 03:58:07;;;;;;;29.77;14.13;;;-0.90;99.90;;;;;;5017396;28;20668;-94
2022/12/10 04:00:33;;;;;;;33.73;15.53;;;-0.90;99.90;;;;;;5020059;28;20191;-94
2022/12/10 04:02:59;;;;;;;31.37;14.57;;;-0.80;99.90;;;;;;5015541;28;20189;-93
2022/12/10 04:05:24;;;;;;;33.20;15.60;;;-0.80;99.90;;;;;;5017021;28;20248;-95
2022/12/10 04:07:50;;;;;;;31.80;14.60;;;-0.80;99.90;;;;;;5016954;28;20182;-94
2022/12/10 04:10:16;;;;;;;30.90;15.17;;;-0.80;99.90;;;;;;5017063;28;20676;-92
2022/12/10 04:12:42;;;;;;;33.43;15.10;;;-0.80;99.90;;;;;;5017124;28;20273;-93
2022/12/10 04:17:52;;;;;;;35.87;14.93;;;-0.80;99.90;;;;;;5034647;28;20354;-95
2022/12/10 04:28:32;;;;;;;36.00;15.33;;;-0.80;99.90;;;;;;5034651;28;20205;-94
2022/12/10 04:30:58;;;;;;;31.57;14.37;;;-0.80;99.90;;;;;;5016972;28;20186;-94
2022/12/10 04:33:23;;;;;;;33.13;15.47;;;-0.80;99.90;;;;;;5016613;28;20506;-93
2022/12/10 04:35:49;;;;;;;31.57;14.77;;;-0.80;99.90;;;;;;5016724;28;20188;-95
2022/12/10 04:38:15;;;;;;;37.03;15.20;;;-0.90;99.90;;;;;;5017105;28;20191;-94
2022/12/10 04:40:41;;;;;;;34.40;15.80;;;-0.90;99.90;;;;;;5016944;28;20273;-94
2022/12/10 04:43:07;;;;;;;31.03;14.60;;;-0.90;99.90;;;;;;5017115;28;20209;-94
2022/12/10 04:45:34;;;;;;;34.20;14.73;;;-0.90;99.90;;;;;;5016429;28;20178;-93
2022/12/10 04:48:00;;;;;;;37.80;15.97;;;-0.90;99.90;;;;;;5016202;28;20190;-95
2022/12/10 04:50:26;;;;;;;33.93;14.23;;;-0.80;99.90;;;;;;5016559;28;20536;-93
2022/12/10 04:52:51;;;;;;;29.30;13.60;;;-0.80;99.90;;;;;;5016611;28;20636;-94
2022/12/10 04:55:17;;;;;;;32.67;14.00;;;-0.80;99.90;;;;;;5017113;28;20182;-94
2022/12/10 04:57:43;;;;;;;36.33;14.80;;;-0.80;99.90;;;;;;5016609;28;20624;-94
2022/12/10 05:00:09;;;;;;;34.23;14.20;;;-0.90;99.90;;;;;;5016552;28;20182;-93
2022/12/10 05:02:35;;;;;;;35.43;14.30;;;-0.90;99.90;;;;;;5006133;28;20223;-94
2022/12/10 05:05:00;;;;;;;39.73;15.57;;;-0.90;99.90;;;;;;4996914;28;20183;-92
2022/12/10 05:07:26;;;;;;;33.47;15.00;;;-1.00;99.90;;;;;;4996909;28;20502;-92
2022/12/10 05:09:52;;;;;;;32.07;14.43;;;-1.00;99.90;;;;;;4996987;28;20254;-95
2022/12/10 05:12:18;;;;;;;38.53;15.87;;;-1.00;99.90;;;;;;4997012;28;20179;-94
2022/12/10 05:14:43;;;;;;;35.97;15.47;;;-1.00;99.90;;;;;;4996924;28;20183;-93
2022/12/10 05:17:09;;;;;;;34.77;14.70;;;-1.00;99.90;;;;;;4996577;28;20176;-93
2022/12/10 05:19:35;;;;;;;29.43;13.30;;;-1.00;99.90;;;;;;4996810;28;20215;-95
2022/12/10 05:24:45;;;;;;;35.07;13.93;;;-1.00;99.90;;;;;;5014306;28;20271;-92
2022/12/10 05:27:10;;;;;;;29.70;13.13;;;-1.00;99.90;;;;;;4999042;28;20179;-94
2022/12/10 05:29:36;;;;;;;33.80;13.00;;;-1.00;99.90;;;;;;5000225;28;20225;-94
2022/12/10 05:32:03;;;;;;;30.77;13.27;;;-1.10;99.90;;;;;;5005915;28;20537;-93
2022/12/10 05:34:29;;;;;;;28.87;12.27;;;-1.20;99.90;;;;;;5019755;28;20232;-93
2022/12/10 05:36:55;;;;;;;33.50;12.67;;;-1.10;99.90;;;;;;5019865;28;20234;-94
2022/12/10 05:39:20;;;;;;;30.20;12.37;;;-1.10;99.90;;;;;;5020089;28;20186;-94
2022/12/10 05:41:46;;;;;;;27.93;13.03;;;-1.10;99.90;;;;;;5020005;28;20262;-95
2022/12/10 05:44:12;;;;;;;28.20;11.67;;;-1.10;99.90;;;;;;5019756;28;20178;-94
2022/12/10 05:46:39;;;;;;;27.80;12.30;;;-1.10;99.90;;;;;;5019327;28;20225;-93
2022/12/10 05:49:06;;;;;;;27.23;12.90;;;-1.10;99.90;;;;;;5019596;28;20252;-93
2022/12/10 05:51:35;;;;;;;28.33;12.70;;;-1.20;99.90;;;;;;5019543;28;20182;-93
2022/12/10 05:54:03;;;;;;;29.43;13.00;;;-1.30;99.90;;;;;;5019603;28;20233;-94
2022/12/10 05:56:29;;;;;;;30.10;12.77;;;-1.20;99.90;;;;;;5019591;28;20566;-93
2022/12/10 05:58:59;;;;;;;29.33;12.20;;;-1.20;99.90;;;;;;5019681;28;20247;-95
2022/12/10 06:01:28;;;;;;;31.63;12.83;;;-1.30;99.90;;;;;;5019710;28;20179;-92
2022/12/10 06:03:54;;;;;;;29.40;13.63;;;-1.20;99.90;;;;;;5019570;28;20282;-93
2022/12/10 06:06:22;;;;;;;30.63;12.40;;;-1.20;99.90;;;;;;5019520;28;20202;-94
2022/12/10 06:08:48;;;;;;;24.00;11.27;;;-1.20;99.90;;;;;;5019238;28;20210;-94
2022/12/10 06:11:14;;;;;;;25.07;11.20;;;-1.20;99.90;;;;;;5019144;28;20182;-95
2022/12/10 06:13:40;;;;;;;30.40;12.50;;;-1.20;99.90;;;;;;5019360;28;20615;-94
2022/12/10 06:16:11;;;;;;;26.87;12.10;;;-1.10;99.90;;;;;;5019226;28;20680;-95
2022/12/10 06:18:37;;;;;;;28.90;12.60;;;-1.10;99.90;;;;;;5021218;28;20170;-95
2022/12/10 06:21:04;;;;;;;27.87;12.03;;;-1.10;99.90;;;;;;5024262;28;20174;-96
2022/12/10 06:23:30;;;;;;;28.03;12.60;;;-1.20;99.90;;;;;;5019319;28;20500;-94
2022/12/10 06:25:56;;;;;;;26.13;11.53;;;-1.10;99.90;;;;;;5018911;28;20175;-94
2022/12/10 06:28:21;;;;;;;27.43;12.60;;;-1.10;99.90;;;;;;5018696;28;20601;-95
2022/12/10 06:30:47;;;;;;;26.90;12.33;;;-1.10;99.90;;;;;;5018598;28;20182;-94
2022/12/10 06:33:13;;;;;;;26.77;12.70;;;-1.20;99.90;;;;;;5003344;28;20358;-95
2022/12/10 06:35:39;;;;;;;28.13;12.67;;;-1.20;99.90;;;;;;4998804;28;20183;-94
2022/12/10 06:38:04;;;;;;;23.53;12.47;;;-1.10;99.90;;;;;;5015532;28;20179;-94
2022/12/10 06:40:30;;;;;;;27.63;12.10;;;-1.10;99.90;;;;;;4998709;28;20183;-93
2022/12/10 06:42:56;;;;;;;27.27;12.33;;;-1.10;99.90;;;;;;4998841;28;20186;-95
2022/12/10 06:45:22;;;;;;;26.13;11.93;;;-1.10;99.90;;;;;;5015140;28;20214;-94
2022/12/10 06:47:48;;;;;;;27.43;11.77;;;-1.10;99.90;;;;;;4998364;28;20642;-94
2022/12/10 06:50:13;;;;;;;29.17;13.47;;;-1.10;99.90;;;;;;4998768;28;20226;-93
2022/12/10 06:52:39;;;;;;;24.40;12.73;;;-1.20;99.90;;;;;;4999012;28;20184;-94
2022/12/10 06:55:05;;;;;;;26.13;13.07;;;-1.20;99.90;;;;;;5014738;28;20202;-95
2022/12/10 06:57:31;;;;;;;22.23;12.10;;;-1.20;99.90;;;;;;4998665;28;20179;-94
2022/12/10 06:59:56;;;;;;;24.33;12.77;;;-1.10;99.90;;;;;;5008607;28;20189;-95
2022/12/10 07:02:22;;;;;;;24.57;11.93;;;-1.10;99.90;;;;;;5018425;28;20233;-93
2022/12/10 07:04:48;;;;;;;27.00;12.73;;;-1.00;99.90;;;;;;5018371;28;20182;-95
2022/12/10 07:07:14;;;;;;;27.87;12.17;;;-1.00;99.90;;;;;;5018128;28;20182;-94
2022/12/10 07:09:39;;;;;;;26.73;12.73;;;-1.00;99.90;;;;;;5017945;28;20564;-93
2022/12/10 07:12:05;;;;;;;23.50;11.63;;;-1.10;99.90;;;;;;5018101;28;20269;-95
2022/12/10 07:14:31;;;;;;;24.57;12.10;;;-1.10;99.90;;;;;;5018252;28;20178;-94
2022/12/10 07:16:57;;;;;;;26.30;12.30;;;-1.10;99.90;;;;;;5017687;28;20532;-94
2022/12/10 07:19:22;;;;;;;29.27;12.73;;;-1.10;99.90;;;;;;5018089;28;20530;-94
2022/12/10 07:21:48;;;;;;;32.20;14.43;;;-1.10;99.90;;;;;;5017884;28;20229;-94
2022/12/10 07:24:17;;;;;;;26.90;13.60;;;-1.10;99.90;;;;;;5017776;28;20178;-94
2022/12/10 07:26:44;;;;;;;31.53;13.57;;;-1.10;99.90;;;;;;5017749;28;20675;-94
2022/12/10 07:29:19;;;;;;;28.23;13.13;;;-1.10;99.90;;;;;;5017955;28;20230;-94
2022/12/10 07:31:47;;;;;;;26.40;12.73;;;-1.10;99.90;;;;;;5035670;28;20181;-94
2022/12/10 07:34:14;;;;;;;27.77;12.67;;;-1.10;99.90;;;;;;5035344;28;20171;-94
2022/12/10 07:36:40;;;;;;;29.63;13.83;;;-1.00;99.90;;;;;;5019201;28;20226;-94
2022/12/10 07:39:08;;;;;;;34.87;14.97;;;-1.00;99.90;;;;;;5019963;28;20232;-93
2022/12/10 07:41:35;;;;;;;171.80;74.87;;;-1.00;99.90;;;;;;5009028;28;20211;-93
2022/12/10 07:44:03;;;;;;;50.67;25.60;;;-1.00;99.90;;;;;;5012024;28;20187;-94
2022/12/10 07:46:31;;;;;;;35.27;16.57;;;-1.00;99.90;;;;;;5016260;28;20193;-93
2022/12/10 07:49:00;;;;;;;26.67;13.30;;;-0.90;99.90;;;;;;5019265;28;20224;-94
2022/12/10 07:51:25;;;;;;;30.73;14.17;;;-0.90;99.90;;;;;;5022230;28;20549;-95
2022/12/10 07:53:53;;;;;;;28.43;14.10;;;-1.00;99.90;;;;;;5034751;28;20178;-94
2022/12/10 07:56:19;;;;;;;29.30;13.70;;;-1.00;99.90;;;;;;5017235;28;20206;-94
2022/12/10 07:58:45;;;;;;;29.57;14.40;;;-1.00;99.90;;;;;;5032950;28;20183;-94
2022/12/10 08:01:16;;;;;;;28.37;12.80;;;-1.00;99.90;;;;;;5017013;28;20182;-95
2022/12/10 08:03:42;;;;;;;27.50;13.87;;;-1.00;99.90;;;;;;5017080;28;20190;-93
2022/12/10 08:06:13;;;;;;;31.00;13.47;;;-1.00;99.90;;;;;;5016137;28;20609;-93
2022/12/10 08:08:39;;;;;;;28.73;12.97;;;-1.00;99.90;;;;;;5016729;28;20210;-94
2022/12/10 08:11:06;;;;;;;26.33;12.20;;;-1.00;99.90;;;;;;5015766;28;20215;-93
2022/12/10 08:13:32;;;;;;;31.27;13.23;;;-0.90;99.90;;;;;;5016327;28;20494;-94
2022/12/10 08:16:07;;;;;;;26.33;13.27;;;-1.00;99.90;;;;;;5032708;28;20237;-93
2022/12/10 08:18:34;;;;;;;34.87;15.77;;;-1.00;99.90;;;;;;5016375;28;20170;-95
2022/12/10 08:21:05;;;;;;;27.30;12.97;;;-1.00;99.90;;;;;;5016364;28;20179;-95
2022/12/10 08:23:31;;;;;;;28.77;13.13;;;-1.00;99.90;;;;;;5016692;28;20256;-94
2022/12/10 08:25:57;;;;;;;30.30;14.17;;;-0.90;99.90;;;;;;5016194;28;20202;-93
2022/12/10 08:28:22;;;;;;;29.47;14.60;;;-0.90;99.90;;;;;;5016337;28;20206;-93
2022/12/10 08:30:49;;;;;;;30.77;14.33;;;-0.90;99.90;;;;;;5034256;28;20193;-94
2022/12/10 08:33:15;;;;;;;28.07;13.67;;;-0.90;99.90;;;;;;5016501;28;20261;-94
2022/12/10 08:35:40;;;;;;;29.97;15.03;;;-0.90;99.90;;;;;;5016950;28;20206;-94
2022/12/10 08:38:06;;;;;;;32.53;14.60;;;-0.90;99.90;;;;;;5033049;28;20250;-94
2022/12/10 08:40:32;;;;;;;28.87;13.33;;;-1.00;99.90;;;;;;5032703;28;20182;-94
2022/12/10 08:42:58;;;;;;;29.97;13.20;;;-0.90;99.90;;;;;;5016485;28;20179;-93
2022/12/10 08:45:24;;;;;;;30.87;13.30;;;-0.90;99.90;;;;;;5006164;28;20182;-94
2022/12/10 08:47:49;;;;;;;30.67;13.67;;;-0.90;99.90;;;;;;5033187;28;20183;-94
2022/12/10 08:50:15;;;;;;;26.20;12.30;;;-0.90;99.90;;;;;;5031796;28;20221;-93
2022/12/10 08:52:42;;;;;;;27.37;12.07;;;-0.90;99.90;;;;;;5015467;28;20175;-94
2022/12/10 08:55:08;;;;;;;29.70;11.77;;;-0.90;99.90;;;;;;5032468;28;20183;-94
2022/12/10 08:57:34;;;;;;;33.10;13.00;;;-0.80;99.90;;;;;;5014188;28;20174;-93
2022/12/10 09:00:04;;;;;;;29.10;13.27;;;-0.90;99.90;;;;;;5016464;28;20273;-91
2022/12/10 09:02:29;;;;;;;30.10;12.90;;;-0.80;99.90;;;;;;5014397;28;20266;-91
2022/12/10 09:04:55;;;;;;;26.70;12.53;;;-0.80;99.90;;;;;;5031564;28;20266;-89
2022/12/10 09:07:21;;;;;;;29.57;12.47;;;-0.80;99.90;;;;;;5020205;28;20229;-90
2022/12/10 09:09:47;;;;;;;30.13;13.30;;;-0.70;99.90;;;;;;5020941;28;20214;-91
2022/12/10 09:12:13;;;;;;;33.23;13.70;;;-0.70;99.90;;;;;;5021721;28;20224;-95
2022/12/10 09:14:40;;;;;;;31.80;14.67;;;-0.70;99.90;;;;;;5020500;28;20571;-92
2022/12/10 09:17:06;;;;;;;30.60;13.97;;;-0.70;99.90;;;;;;5020082;28;20178;-93
2022/12/10 09:19:32;;;;;;;31.80;13.40;;;-0.80;99.90;;;;;;5003895;28;20525;-93
2022/12/10 09:21:57;;;;;;;29.83;13.27;;;-0.70;99.90;;;;;;5000332;28;20540;-92
2022/12/10 09:24:23;;;;;;;31.83;13.30;;;-0.70;99.90;;;;;;5009496;28;20190;-92
2022/12/10 09:26:49;;;;;;;35.77;14.70;;;-0.80;99.90;;;;;;5036171;28;20185;-91
2022/12/10 09:29:15;;;;;;;33.17;14.87;;;-0.80;99.90;;;;;;5032269;28;20215;-90
2022/12/10 09:31:41;;;;;;;28.83;13.67;;;-0.70;99.90;;;;;;5019909;28;20178;-90
2022/12/10 09:34:06;;;;;;;30.10;12.93;;;-0.70;99.90;;;;;;5019687;28;20178;-91
2022/12/10 09:36:32;;;;;;;28.67;13.17;;;-0.80;99.90;;;;;;5020520;28;20227;-90
2022/12/10 09:38:58;;;;;;;27.13;12.77;;;-0.70;99.90;;;;;;5021283;28;20185;-91
2022/12/10 09:41:24;;;;;;;29.47;13.17;;;-0.80;99.90;;;;;;5016532;28;20218;-91
2022/12/10 09:44:34;;;;;;;32.03;13.77;;;-0.80;99.90;;;;;;5016981;28;20179;-91
2022/12/10 09:47:03;;;;;;;29.10;13.20;;;-0.80;99.90;;;;;;4975847;28;20261;-91
2022/12/10 09:49:59;;;;;;;27.07;12.73;;;-0.90;99.90;;;;;;5021404;28;20219;-91
2022/12/10 09:52:32;;;;;;;27.87;13.30;;;-0.90;99.90;;;;;;5025760;28;20175;-91
2022/12/10 09:55:02;;;;;;;28.80;12.87;;;-0.90;99.90;;;;;;5017552;28;20197;-92
2022/12/10 09:57:39;;;;;;;28.77;11.53;;;-0.80;99.90;;;;;;5029891;28;20183;-91
2022/12/10 10:00:19;;;;;;;29.03;12.03;;;-0.80;99.90;;;;;;5033966;28;20190;-91
2022/12/10 10:02:46;;;;;;;26.17;11.83;;;-0.80;99.90;;;;;;5017684;28;20189;-92
2022/12/10 10:05:25;;;;;;;26.33;11.10;;;-0.80;99.90;;;;;;5018020;28;20167;-91
2022/12/10 10:07:58;;;;;;;22.83;11.03;;;-0.90;99.90;;;;;;5018369;28;20615;-93
2022/12/10 10:10:31;;;;;;;27.23;11.33;;;-0.90;99.90;;;;;;5018503;28;20221;-92
2022/12/10 10:13:06;;;;;;;22.07;11.33;;;-0.90;99.90;;;;;;5012504;28;20190;-92
2022/12/10 10:15:34;;;;;;;27.53;12.03;;;-0.90;99.90;;;;;;5026905;28;20222;-92
2022/12/10 10:18:27;;;;;;;24.20;11.13;;;-0.90;99.90;;;;;;5020924;28;20210;-91
2022/12/10 10:20:54;;;;;;;17.13;9.23;;;-0.80;99.90;;;;;;5018548;28;20170;-91
2022/12/10 10:23:21;;;;;;;19.83;10.40;;;-0.90;99.90;;;;;;5019042;28;20187;-92
2022/12/10 10:25:47;;;;;;;22.03;10.77;;;-0.80;99.90;;;;;;5036661;28;20170;-92
2022/12/10 10:28:20;;;;;;;20.40;10.30;;;-0.80;99.90;;;;;;5018918;28;20178;-91
2022/12/10 10:30:46;;;;;;;22.03;10.17;;;-0.80;99.90;;;;;;5034111;28;20193;-92
2022/12/10 10:33:15;;;;;;;20.73;10.40;;;-0.80;99.90;;;;;;5017631;28;20648;-90
2022/12/10 10:35:52;;;;;;;22.57;10.70;;;-0.80;99.90;;;;;;5017083;28;20232;-91
2022/12/10 10:38:23;;;;;;;23.63;10.93;;;-0.80;99.90;;;;;;5018221;28;20201;-92
2022/12/10 10:40:52;;;;;;;21.77;10.37;;;-0.80;99.90;;;;;;5015787;28;20280;-91
2022/12/10 10:43:23;;;;;;;24.43;11.37;;;-0.90;99.90;;;;;;5017540;28;20193;-93
2022/12/10 10:45:58;;;;;;;31.60;13.80;;;-0.90;99.90;;;;;;5018085;28;20237;-93
2022/12/10 10:48:25;;;;;;;27.07;13.10;;;-0.90;99.90;;;;;;5018484;28;20861;-92
2022/12/10 10:50:55;;;;;;;28.20;12.17;;;-0.90;99.90;;;;;;5017566;28;20617;-91
2022/12/10 10:53:24;;;;;;;23.17;11.50;;;-0.80;99.90;;;;;;5009499;28;20178;-93
2022/12/10 10:55:52;;;;;;;25.83;11.57;;;-0.90;99.90;;;;;;5026099;28;20191;-93
2022/12/10 10:58:22;;;;;;;25.60;11.40;;;-0.90;99.90;;;;;;5023580;28;20170;-93
2022/12/10 11:01:18;;;;;;;31.63;15.33;;;-0.90;99.90;;;;;;5024472;28;20224;-92
2022/12/10 11:03:55;;;;;;;28.37;13.87;;;-0.90;99.90;;;;;;5027128;28;20197;-93
2022/12/10 11:06:22;;;;;;;25.00;12.13;;;-0.90;99.90;;;;;;5043313;28;20174;-94
2022/12/10 11:08:48;;;;;;;30.23;14.73;;;-0.90;99.90;;;;;;5028510;28;20213;-93
2022/12/10 11:11:34;;;;;;;27.60;14.87;;;-0.90;99.90;;;;;;5044554;28;20576;-94
2022/12/10 11:14:14;;;;;;;23.43;11.13;;;-0.90;99.90;;;;;;5025510;28;20175;-93
2022/12/10 11:16:40;;;;;;;23.07;11.77;;;-0.90;99.90;;;;;;5039583;28;20167;-94
2022/12/10 11:19:16;;;;;;;23.20;11.57;;;-1.00;99.90;;;;;;5042659;28;20188;-93
2022/12/10 11:21:42;;;;;;;20.20;10.40;;;-0.90;99.90;;;;;;5024978;28;20620;-94
2022/12/10 11:24:11;;;;;;;22.23;10.03;;;-0.90;99.90;;;;;;5030480;28;20185;-92
2022/12/10 11:26:54;;;;;;;23.43;10.77;;;-1.00;99.90;;;;;;5030883;28;20181;-94
2022/12/10 11:29:26;;;;;;;18.93;9.73;;;-1.00;99.90;;;;;;5046153;28;20338;-93
2022/12/10 11:32:19;;;;;;;21.63;10.37;;;-0.90;99.90;;;;;;5035600;28;20214;-93
2022/12/10 11:35:00;;;;;;;20.83;10.30;;;-1.00;99.90;;;;;;5014600;28;20187;-96
2022/12/10 11:37:47;;;;;;;22.37;11.20;;;-1.00;99.90;;;;;;4999439;28;20258;-95
2022/12/10 11:40:18;;;;;;;21.50;10.70;;;-1.00;99.90;;;;;;4996544;28;20318;-95
2022/12/10 11:42:56;;;;;;;24.93;12.00;;;-1.00;99.90;;;;;;4994908;28;20276;-94
2022/12/10 11:45:32;;;;;;;19.60;10.97;;;-1.00;99.90;;;;;;4994910;28;20291;-95
2022/12/10 11:48:25;;;;;;;20.57;11.23;;;-1.10;99.90;;;;;;4995399;28;20187;-95
2022/12/10 11:51:13;;;;;;;20.13;10.70;;;-1.00;99.90;;;;;;4995393;28;20206;-95
2022/12/10 11:53:45;;;;;;;21.40;11.17;;;-1.10;99.90;;;;;;4996121;28;20187;-96
2022/12/10 11:56:29;;;;;;;20.30;10.83;;;-1.10;99.90;;;;;;4996477;28;20171;-96
2022/12/10 11:59:05;;;;;;;19.17;10.33;;;-1.10;99.90;;;;;;4996766;28;20230;-93
2022/12/10 12:01:37;;;;;;;20.73;12.10;;;-1.10;99.90;;;;;;5003187;28;20725;-96
2022/12/10 12:04:03;;;;;;;17.83;10.30;;;-1.00;99.90;;;;;;5015077;28;20202;-95
2022/12/10 12:06:51;;;;;;;20.47;10.20;;;-1.00;99.90;;;;;;5016276;28;20175;-96
2022/12/10 12:09:37;;;;;;;15.60;8.53;;;-1.00;99.90;;;;;;4999178;28;20203;-96
2022/12/10 12:12:31;;;;;;;18.13;10.07;;;-1.00;99.90;;;;;;5008800;28;20191;-89
2022/12/10 12:14:59;;;;;;;18.40;10.27;;;-1.00;99.90;;;;;;5007039;28;20511;-91
2022/12/10 12:17:43;;;;;;;16.97;9.37;;;-1.00;99.90;;;;;;4996318;28;20201;-93
2022/12/10 12:20:34;;;;;;;15.43;9.13;;;-1.00;99.90;;;;;;5003718;28;20505;-92
2022/12/10 12:23:14;;;;;;;15.27;8.70;;;-0.90;99.90;;;;;;5010603;28;20183;-92
2022/12/10 12:25:51;;;;;;;16.33;8.73;;;-0.90;99.90;;;;;;5010716;28;20187;-92
2022/12/10 12:28:41;;;;;;;12.83;8.10;;;-0.90;99.90;;;;;;5010902;28;20174;-91
2022/12/10 12:31:20;;;;;;;18.37;9.57;;;-0.90;99.90;;;;;;4996981;28;20183;-91
2022/12/10 12:33:59;;;;;;;14.90;9.53;;;-0.80;99.90;;;;;;5011062;28;20179;-93
2022/12/10 12:36:33;;;;;;;15.60;9.70;;;-0.80;99.90;;;;;;5012624;28;20222;-93
2022/12/10 12:39:12;;;;;;;14.47;9.17;;;-0.80;99.90;;;;;;5019033;28;20618;-94
2022/12/10 12:41:51;;;;;;;16.53;9.10;;;-0.80;99.90;;;;;;5024399;28;20217;-94
2022/12/10 12:44:52;;;;;;;14.27;8.47;;;-0.80;99.90;;;;;;5002654;28;20182;-94
2022/12/10 12:47:43;;;;;;;14.20;9.20;;;-0.80;99.90;;;;;;5016586;28;20191;-94
2022/12/10 12:50:24;;;;;;;16.93;9.17;;;-0.80;99.90;;;;;;5015280;28;20218;-93
2022/12/10 12:52:55;;;;;;;15.33;9.87;;;-0.80;99.90;;;;;;5015302;28;20178;-93
2022/12/10 12:55:33;;;;;;;19.90;9.63;;;-0.80;99.90;;;;;;5019500;28;20182;-93
2022/12/10 12:58:27;;;;;;;15.30;8.43;;;-0.80;99.90;;;;;;5021149;28;20193;-94